Time;durP1;ratioP1;P1;durP2;ratioP2;P2;SDS_P1;SDS_P2;PMS_P1;PMS_P2;Temp;Humidity;BMP_temperature;BMP_pressure;BME280_temperature;BME280_humidity;BME280_pressure;Samples;Min_cycle;Max_cycle;Signal;HPM_P1;HPM_P2
2023/05/06 00:01:33;;;;;;;;;;;12.60;99.90;;;;;;5049736;28;20377;-68
2023/05/06 00:03:58;;;;;;;;;;;12.50;99.90;;;;;;5035166;28;20429;-68
2023/05/06 00:06:24;;;;;;;;;;;12.60;99.90;;;;;;5059340;28;19928;-68
2023/05/06 00:08:50;;;;;;;;;;;12.50;99.90;;;;;;5072580;28;19929;-68
2023/05/06 00:11:15;;;;;;;;;;;12.50;99.90;;;;;;5068998;28;19999;-69
2023/05/06 00:13:41;;;;;;;;;;;12.50;99.90;;;;;;5053581;28;19931;-68
2023/05/06 00:16:06;;;;;;;;;;;12.40;99.90;;;;;;5071702;28;19943;-70
2023/05/06 00:18:32;;;;;;;;;;;12.40;99.90;;;;;;5050051;28;19928;-69
2023/05/06 00:20:58;;;;;;;;;;;12.30;99.90;;;;;;5071171;28;19925;-70
2023/05/06 00:23:23;;;;;;;;;;;12.30;99.90;;;;;;5070123;28;19972;-70
2023/05/06 00:25:49;;;;;;;;;;;12.30;99.90;;;;;;5067015;28;19929;-69
2023/05/06 00:28:14;;;;;;;;;;;12.20;99.90;;;;;;5042223;28;19928;-69
2023/05/06 00:30:40;;;;;;;;;;;12.20;99.90;;;;;;5064406;28;20402;-69
2023/05/06 00:33:05;;;;;;;;;;;12.20;99.90;;;;;;5071370;28;19948;-69
2023/05/06 00:35:31;;;;;;;;;;;12.20;99.90;;;;;;5068885;28;19925;-69
2023/05/06 00:38:03;;;;;;;;;;;12.10;99.90;;;;;;5069213;28;20027;-69
2023/05/06 00:40:32;;;;;;;;;;;12.00;99.90;;;;;;5066535;28;20447;-69
2023/05/06 00:42:57;;;;;;;;;;;12.00;99.90;;;;;;5069359;28;20353;-69
2023/05/06 00:45:23;;;;;;;;;;;11.90;99.90;;;;;;5066136;28;20039;-70
2023/05/06 00:47:49;;;;;;;;;;;12.00;99.90;;;;;;5070880;28;19924;-70
2023/05/06 00:50:14;;;;;;;;;;;11.90;99.90;;;;;;5065073;28;20007;-70
2023/05/06 00:52:40;;;;;;;;;;;11.90;99.90;;;;;;5035909;28;20354;-69
2023/05/06 00:55:05;;;;;;;;;;;11.90;99.90;;;;;;5067470;28;20301;-69
2023/05/06 00:57:31;;;;;;;;;;;11.90;99.90;;;;;;5049614;28;19936;-69
2023/05/06 00:59:57;;;;;;;;;;;11.90;99.90;;;;;;5032139;28;19924;-69
2023/05/06 01:02:22;;;;;;;;;;;11.90;99.90;;;;;;5065691;28;20058;-68
2023/05/06 01:04:50;;;;;;;;;;;11.90;99.90;;;;;;5069667;28;20303;-68
2023/05/06 01:07:32;;;;;;;;;;;11.90;99.90;;;;;;5070318;28;19964;-69
2023/05/06 01:10:09;;;;;;;;;;;11.90;99.90;;;;;;5070172;28;19924;-69
2023/05/06 01:12:38;;;;;;;;;;;12.00;99.90;;;;;;5050125;28;19932;-69
2023/05/06 01:15:06;;;;;;;;;;;11.90;99.90;;;;;;5073397;28;19924;-69
2023/05/06 01:17:33;;;;;;;;;;;11.90;99.90;;;;;;5068320;28;20290;-69
2023/05/06 01:20:00;;;;;;;;;;;11.90;99.90;;;;;;5069010;28;19928;-69
2023/05/06 01:22:27;;;;;;;;;;;11.90;99.90;;;;;;5073061;28;19925;-69
2023/05/06 01:24:53;;;;;;;;;;;11.90;99.90;;;;;;5068303;28;19928;-68
2023/05/06 01:27:19;;;;;;;;;;;11.90;99.90;;;;;;5069749;28;19978;-69
2023/05/06 01:29:45;;;;;;;;;;;11.90;99.90;;;;;;5065175;28;20098;-69
2023/05/06 01:32:23;;;;;;;;;;;12.00;99.90;;;;;;5066991;28;19970;-69
2023/05/06 01:34:55;;;;;;;;;;;11.90;99.90;;;;;;5066317;28;19971;-68
2023/05/06 01:37:33;;;;;;;;;;;12.00;99.90;;;;;;5070284;28;19924;-69
2023/05/06 01:39:59;;;;;;;;;;;12.00;99.90;;;;;;5069359;28;19925;-69
2023/05/06 01:42:26;;;;;;;;;;;11.90;99.90;;;;;;5064640;28;20015;-69
2023/05/06 01:44:51;;;;;;;;;;;12.00;99.90;;;;;;5046715;28;19928;-68
2023/05/06 01:47:18;;;;;;;;;;;12.00;99.90;;;;;;5064726;28;19931;-68
2023/05/06 01:49:43;;;;;;;;;;;12.00;99.90;;;;;;5070200;28;19936;-69
2023/05/06 01:52:09;;;;;;;;;;;11.90;99.90;;;;;;5070534;28;20400;-68
2023/05/06 01:54:35;;;;;;;;;;;11.90;99.90;;;;;;5067218;28;20487;-68
2023/05/06 01:57:01;;;;;;;;;;;11.90;99.90;;;;;;5069111;28;19924;-68
2023/05/06 01:59:26;;;;;;;;;;;11.80;99.90;;;;;;5069930;28;19978;-69
2023/05/06 02:01:52;;;;;;;;;;;11.80;99.90;;;;;;5051640;28;19924;-68
2023/05/06 02:04:17;;;;;;;;;;;11.70;99.90;;;;;;5032455;28;19931;-69
2023/05/06 02:06:43;;;;;;;;;;;11.70;99.90;;;;;;5050435;28;19971;-69
2023/05/06 02:09:08;;;;;;;;;;;11.70;99.90;;;;;;5070631;28;20445;-68
2023/05/06 02:11:34;;;;;;;;;;;11.60;99.90;;;;;;5068834;28;19929;-70
2023/05/06 02:14:00;;;;;;;;;;;11.60;99.90;;;;;;5051906;28;19928;-69
2023/05/06 02:16:27;;;;;;;;;;;11.50;99.90;;;;;;5023647;28;19976;-69
2023/05/06 02:18:52;;;;;;;;;;;11.50;99.90;;;;;;5068522;28;20624;-69
2023/05/06 02:21:18;;;;;;;;;;;11.50;99.90;;;;;;5056250;28;20015;-69
2023/05/06 02:23:44;;;;;;;;;;;11.40;99.90;;;;;;5073083;28;19924;-69
2023/05/06 02:26:09;;;;;;;;;;;11.40;99.90;;;;;;5065059;28;19940;-69
2023/05/06 02:28:35;;;;;;;;;;;11.30;99.90;;;;;;5054176;28;19932;-69
2023/05/06 02:31:00;;;;;;;;;;;11.30;99.90;;;;;;5072877;28;19940;-70
2023/05/06 02:33:26;;;;;;;;;;;11.30;99.90;;;;;;5055238;28;19925;-70
2023/05/06 02:35:52;;;;;;;;;;;11.20;99.90;;;;;;5054187;28;19931;-69
2023/05/06 02:38:18;;;;;;;;;;;11.20;99.90;;;;;;5073544;28;19931;-69
2023/05/06 02:40:44;;;;;;;;;;;11.10;99.90;;;;;;5050982;28;19924;-68
2023/05/06 02:43:09;;;;;;;;;;;11.10;99.90;;;;;;5054859;28;19924;-74
2023/05/06 02:45:35;;;;;;;;;;;11.10;99.90;;;;;;5053789;28;19928;-69
2023/05/06 02:48:00;;;;;;;;;;;11.00;99.90;;;;;;5072535;28;19924;-69
2023/05/06 02:50:26;;;;;;;;;;;11.00;99.90;;;;;;5060200;28;20354;-69
2023/05/06 02:52:54;;;;;;;;;;;11.00;99.90;;;;;;5071868;28;19932;-69
2023/05/06 02:55:20;;;;;;;;;;;10.90;99.90;;;;;;5073285;28;19982;-69
2023/05/06 02:57:45;;;;;;;;;;;10.90;99.90;;;;;;5072876;28;19960;-69
2023/05/06 03:00:11;;;;;;;;;;;10.90;99.90;;;;;;5072386;28;19925;-69
2023/05/06 03:02:40;;;;;;;;;;;10.90;99.90;;;;;;5070013;28;20006;-70
2023/05/06 03:05:05;;;;;;;;;;;10.90;99.90;;;;;;5062676;28;19925;-68
2023/05/06 03:07:31;;;;;;;;;;;10.80;99.90;;;;;;5054321;28;19970;-69
2023/05/06 03:09:57;;;;;;;;;;;10.90;99.90;;;;;;5071161;28;19924;-68
2023/05/06 03:12:23;;;;;;;;;;;10.80;99.90;;;;;;5053034;28;20004;-68
2023/05/06 03:14:48;;;;;;;;;;;10.80;99.90;;;;;;5072871;28;19924;-68
2023/05/06 03:17:14;;;;;;;;;;;10.80;99.90;;;;;;5070081;28;20716;-68
2023/05/06 03:19:39;;;;;;;;;;;10.70;99.90;;;;;;5072735;28;20208;-68
2023/05/06 03:22:05;;;;;;;;;;;10.70;99.90;;;;;;5072926;28;19932;-68
2023/05/06 03:24:30;;;;;;;;;;;10.70;99.90;;;;;;5051991;28;19932;-69
2023/05/06 03:26:57;;;;;;;;;;;10.70;99.90;;;;;;5072378;28;19931;-69
2023/05/06 03:29:23;;;;;;;;;;;10.60;99.90;;;;;;5072766;28;19924;-68
2023/05/06 03:31:50;;;;;;;;;;;10.60;99.90;;;;;;5073946;28;19931;-68
2023/05/06 03:34:15;;;;;;;;;;;10.60;99.90;;;;;;5073404;28;19936;-68
2023/05/06 03:36:41;;;;;;;;;;;10.60;99.90;;;;;;5072299;28;19991;-68
2023/05/06 03:39:07;;;;;;;;;;;10.60;99.90;;;;;;5072998;28;19940;-68
2023/05/06 03:41:32;;;;;;;;;;;10.60;99.90;;;;;;5049760;28;19924;-68
2023/05/06 03:43:58;;;;;;;;;;;10.60;99.90;;;;;;5071023;28;20405;-68
2023/05/06 03:46:23;;;;;;;;;;;10.60;99.90;;;;;;5067740;28;19935;-68
2023/05/06 03:48:49;;;;;;;;;;;10.60;99.90;;;;;;5071127;28;19939;-68
2023/05/06 03:51:15;;;;;;;;;;;10.60;99.90;;;;;;5073418;28;19975;-68
2023/05/06 03:53:40;;;;;;;;;;;10.60;99.90;;;;;;5070436;28;19969;-68
2023/05/06 03:56:06;;;;;;;;;;;10.60;99.90;;;;;;5068069;28;19924;-68
2023/05/06 03:58:31;;;;;;;;;;;10.60;99.90;;;;;;5071701;28;20374;-69
2023/05/06 04:00:59;;;;;;;;;;;10.60;99.90;;;;;;5072116;28;20274;-69
2023/05/06 04:03:25;;;;;;;;;;;10.60;99.90;;;;;;5059077;28;19938;-67
2023/05/06 04:05:50;;;;;;;;;;;10.60;99.90;;;;;;5071812;28;19924;-68
2023/05/06 04:08:16;;;;;;;;;;;10.60;99.90;;;;;;5071917;28;20011;-67
2023/05/06 04:10:41;;;;;;;;;;;10.60;99.90;;;;;;5072684;28;19925;-68
2023/05/06 04:13:07;;;;;;;;;;;10.50;99.90;;;;;;5067955;28;19925;-69
2023/05/06 04:15:34;;;;;;;;;;;10.50;99.90;;;;;;5062495;28;19928;-68
2023/05/06 04:18:00;;;;;;;;;;;10.50;99.90;;;;;;5072449;28;19925;-68
2023/05/06 04:20:26;;;;;;;;;;;10.60;99.90;;;;;;5074079;28;20035;-68
2023/05/06 04:22:52;;;;;;;;;;;10.50;99.90;;;;;;5072122;28;19925;-69
2023/05/06 04:25:18;;;;;;;;;;;10.60;99.90;;;;;;5073324;28;19925;-68
2023/05/06 04:27:44;;;;;;;;;;;10.60;99.90;;;;;;5053356;28;19968;-69
2023/05/06 04:30:10;;;;;;;;;;;10.60;99.90;;;;;;5068866;28;19928;-68
2023/05/06 04:32:37;;;;;;;;;;;10.70;99.90;;;;;;5055226;28;19947;-69
2023/05/06 04:35:03;;;;;;;;;;;10.70;99.90;;;;;;5070391;28;19928;-69
2023/05/06 04:37:29;;;;;;;;;;;10.70;99.90;;;;;;5067392;28;19987;-68
2023/05/06 04:39:56;;;;;;;;;;;10.80;99.90;;;;;;5068641;28;19931;-68
2023/05/06 04:42:21;;;;;;;;;;;10.80;99.90;;;;;;5072551;28;19924;-68
2023/05/06 04:44:47;;;;;;;;;;;10.80;99.90;;;;;;5072488;28;20339;-69
2023/05/06 04:47:16;;;;;;;;;;;10.80;99.90;;;;;;5071020;28;19935;-69
2023/05/06 04:49:42;;;;;;;;;;;10.80;99.90;;;;;;5071214;28;19924;-68
2023/05/06 04:52:08;;;;;;;;;;;10.80;99.90;;;;;;5071693;28;19931;-68
2023/05/06 04:54:33;;;;;;;;;;;10.90;99.90;;;;;;5071441;28;20044;-69
2023/05/06 04:56:59;;;;;;;;;;;10.90;99.90;;;;;;5072407;28;20035;-69
2023/05/06 04:59:25;;;;;;;;;;;10.90;99.90;;;;;;5063487;28;20382;-69
2023/05/06 05:01:51;;;;;;;;;;;11.00;99.90;;;;;;5070721;28;20007;-67
2023/05/06 05:04:16;;;;;;;;;;;11.00;99.90;;;;;;5071029;28;19931;-68
2023/05/06 05:06:42;;;;;;;;;;;11.10;99.90;;;;;;5070908;28;20275;-67
2023/05/06 05:09:09;;;;;;;;;;;11.10;99.90;;;;;;5068973;28;19925;-68
2023/05/06 05:11:38;;;;;;;;;;;11.20;99.90;;;;;;5053203;28;19924;-68
2023/05/06 05:14:03;;;;;;;;;;;11.30;99.90;;;;;;5072320;28;19924;-68
2023/05/06 05:16:29;;;;;;;;;;;11.30;99.90;;;;;;5052958;28;20011;-67
2023/05/06 05:18:57;;;;;;;;;;;11.40;99.90;;;;;;5072398;28;20015;-69
2023/05/06 05:21:23;;;;;;;;;;;11.50;99.90;;;;;;5053112;28;19932;-69
2023/05/06 05:23:48;;;;;;;;;;;11.50;99.90;;;;;;5052735;28;20301;-69
2023/05/06 05:26:14;;;;;;;;;;;11.60;99.90;;;;;;5071567;28;19925;-67
2023/05/06 05:28:39;;;;;;;;;;;11.80;99.90;;;;;;5082766;28;19925;-67
2023/05/06 05:31:05;;;;;;;;;;;11.90;99.90;;;;;;5072063;28;20050;-67
2023/05/06 05:33:31;;;;;;;;;;;12.10;99.90;;;;;;5071980;28;20251;-67
2023/05/06 05:35:57;;;;;;;;;;;12.10;99.90;;;;;;5053431;28;19977;-68
2023/05/06 05:38:22;;;;;;;;;;;12.00;99.90;;;;;;5052886;28;19932;-68
2023/05/06 05:40:48;;;;;;;;;;;12.10;99.90;;;;;;5071749;28;19934;-68
2023/05/06 05:43:13;;;;;;;;;;;12.10;99.90;;;;;;5054373;28;19971;-68
2023/05/06 05:45:39;;;;;;;;;;;12.20;99.90;;;;;;5036109;28;19925;-68
2023/05/06 05:48:04;;;;;;;;;;;12.20;99.90;;;;;;5072443;28;19946;-69
2023/05/06 05:50:30;;;;;;;;;;;12.20;99.90;;;;;;5071209;28;19964;-68
2023/05/06 05:52:55;;;;;;;;;;;12.30;99.90;;;;;;5071519;28;19959;-68
2023/05/06 05:55:21;;;;;;;;;;;12.20;99.90;;;;;;5054882;28;19931;-69
2023/05/06 05:57:46;;;;;;;;;;;12.20;99.90;;;;;;5074621;28;19928;-68
2023/05/06 06:00:12;;;;;;;;;;;12.10;99.90;;;;;;5073815;28;20021;-68
2023/05/06 06:02:38;;;;;;;;;;;12.20;99.90;;;;;;5074374;28;19925;-68
2023/05/06 06:05:04;;;;;;;;;;;12.10;99.90;;;;;;5074771;28;19947;-69
2023/05/06 06:07:29;;;;;;;;;;;12.10;99.90;;;;;;5072389;28;20435;-69
2023/05/06 06:09:55;;;;;;;;;;;12.20;99.90;;;;;;5074067;28;19928;-69
2023/05/06 06:12:21;;;;;;;;;;;12.20;99.90;;;;;;5070008;28;19931;-69
2023/05/06 06:14:47;;;;;;;;;;;12.30;99.90;;;;;;5071890;28;20309;-68
2023/05/06 06:17:13;;;;;;;;;;;12.30;99.90;;;;;;5072549;28;19936;-69
2023/05/06 06:19:39;;;;;;;;;;;12.30;99.90;;;;;;5069748;28;20271;-69
2023/05/06 06:22:05;;;;;;;;;;;12.40;99.90;;;;;;5070490;28;19928;-68
2023/05/06 06:24:33;;;;;;;;;;;12.40;99.90;;;;;;5073521;28;20014;-68
2023/05/06 06:27:00;;;;;;;;;;;12.40;99.90;;;;;;5067796;28;19932;-69
2023/05/06 06:29:25;;;;;;;;;;;12.50;99.90;;;;;;5062515;28;19933;-69
2023/05/06 06:31:51;;;;;;;;;;;12.50;99.90;;;;;;5056104;28;19935;-69
2023/05/06 06:34:17;;;;;;;;;;;12.50;99.90;;;;;;5038673;28;19992;-70
2023/05/06 06:36:44;;;;;;;;;;;12.50;99.90;;;;;;5072307;28;19950;-68
2023/05/06 06:39:10;;;;;;;;;;;12.50;99.90;;;;;;5068152;28;19978;-69
2023/05/06 06:41:36;;;;;;;;;;;12.50;99.90;;;;;;5072082;28;19948;-69
2023/05/06 06:44:02;;;;;;;;;;;12.50;99.90;;;;;;5055434;28;19924;-68
2023/05/06 06:46:27;;;;;;;;;;;12.50;99.90;;;;;;5074306;28;19951;-72
2023/05/06 06:48:53;;;;;;;;;;;12.60;99.90;;;;;;5074402;28;20377;-68
2023/05/06 06:51:18;;;;;;;;;;;12.60;99.90;;;;;;5073311;28;19931;-68
2023/05/06 06:53:47;;;;;;;;;;;12.60;99.90;;;;;;5051121;28;19925;-69
2023/05/06 06:56:14;;;;;;;;;;;12.70;99.90;;;;;;5066597;28;19932;-69
2023/05/06 06:58:40;;;;;;;;;;;12.70;99.90;;;;;;5049282;28;20285;-68
2023/05/06 07:01:08;;;;;;;;;;;12.70;99.90;;;;;;5055107;28;20007;-69
2023/05/06 07:03:34;;;;;;;;;;;12.80;99.90;;;;;;5065005;28;19970;-69
2023/05/06 07:06:00;;;;;;;;;;;12.80;99.90;;;;;;5071356;28;19924;-68
2023/05/06 07:08:25;;;;;;;;;;;12.90;99.90;;;;;;5074403;28;19925;-69
2023/05/06 07:10:54;;;;;;;;;;;12.90;99.90;;;;;;5073662;28;19971;-69
2023/05/06 07:13:22;;;;;;;;;;;12.90;99.90;;;;;;5073988;28;20547;-70
2023/05/06 07:15:47;;;;;;;;;;;12.90;99.90;;;;;;5072672;28;19932;-68
2023/05/06 07:18:13;;;;;;;;;;;12.90;99.90;;;;;;5073553;28;19951;-69
2023/05/06 07:20:39;;;;;;;;;;;12.90;99.90;;;;;;5079836;28;20003;-69
2023/05/06 07:23:04;;;;;;;;;;;13.00;99.90;;;;;;5074975;28;19928;-68
2023/05/06 07:25:31;;;;;;;;;;;13.00;99.90;;;;;;5073018;28;19924;-68
2023/05/06 07:27:57;;;;;;;;;;;13.00;99.90;;;;;;5061473;28;20028;-69
2023/05/06 07:30:23;;;;;;;;;;;12.90;99.90;;;;;;5076314;28;19926;-68
2023/05/06 07:32:48;;;;;;;;;;;12.90;99.90;;;;;;5072529;28;19929;-69
2023/05/06 07:35:14;;;;;;;;;;;12.90;99.90;;;;;;5072406;28;19925;-68
2023/05/06 07:37:39;;;;;;;;;;;12.90;99.90;;;;;;5065830;28;19929;-69
2023/05/06 07:40:05;;;;;;;;;;;12.90;99.90;;;;;;5072131;28;20007;-68
2023/05/06 07:42:31;;;;;;;;;;;12.90;99.90;;;;;;5072156;28;19924;-68
2023/05/06 07:44:56;;;;;;;;;;;12.80;99.90;;;;;;5072230;28;20015;-68
2023/05/06 07:47:26;;;;;;;;;;;13.00;99.90;;;;;;5067095;28;20291;-69
2023/05/06 07:49:53;;;;;;;;;;;12.90;99.90;;;;;;5072348;28;19924;-68
2023/05/06 07:52:18;;;;;;;;;;;13.00;99.90;;;;;;5067566;28;19931;-69
2023/05/06 07:54:44;;;;;;;;;;;13.10;99.90;;;;;;5072973;28;19924;-69
2023/05/06 07:57:09;;;;;;;;;;;13.10;99.90;;;;;;5072623;28;19925;-68
2023/05/06 07:59:35;;;;;;;;;;;13.10;99.90;;;;;;5070153;28;20372;-69
2023/05/06 08:02:01;;;;;;;;;;;13.20;99.90;;;;;;5067385;28;20098;-68
2023/05/06 08:04:27;;;;;;;;;;;13.30;99.90;;;;;;5069495;28;19940;-69
2023/05/06 08:06:56;;;;;;;;;;;13.40;99.90;;;;;;5073104;28;20374;-70
2023/05/06 08:09:21;;;;;;;;;;;13.40;99.90;;;;;;5070121;28;20019;-69
2023/05/06 08:11:48;;;;;;;;;;;13.60;99.90;;;;;;5072444;28;20007;-68
2023/05/06 08:14:14;;;;;;;;;;;13.70;99.90;;;;;;5069777;28;19924;-68
2023/05/06 08:16:40;;;;;;;;;;;13.70;99.90;;;;;;5068108;28;19925;-68
2023/05/06 08:19:05;;;;;;;;;;;13.80;99.90;;;;;;5073419;28;20360;-69
2023/05/06 08:21:31;;;;;;;;;;;13.80;99.90;;;;;;5051804;28;19924;-69
2023/05/06 08:23:58;;;;;;;;;;;13.90;99.90;;;;;;5070814;28;20418;-69
2023/05/06 08:26:24;;;;;;;;;;;13.90;99.90;;;;;;5071381;28;19970;-69
2023/05/06 08:28:50;;;;;;;;;;;14.20;99.90;;;;;;5068732;28;20358;-69
2023/05/06 08:31:15;;;;;;;;;;;14.40;99.90;;;;;;5068097;28;19986;-69
2023/05/06 08:33:41;;;;;;;;;;;14.70;99.90;;;;;;5072348;28;19931;-69
2023/05/06 08:36:09;;;;;;;;;;;15.00;99.90;;;;;;5072872;28;19924;-69
2023/05/06 08:38:34;;;;;;;;;;;15.10;99.90;;;;;;5071041;28;20015;-69
2023/05/06 08:41:06;;;;;;;;;;;15.40;99.90;;;;;;5066054;28;19930;-69
2023/05/06 08:43:34;;;;;;;;;;;15.60;99.90;;;;;;5074121;28;20278;-69
2023/05/06 08:46:34;;;;;;;;;;;15.70;99.90;;;;;;5068001;28;19981;-70
2023/05/06 08:49:00;;;;;;;;;;;15.80;99.90;;;;;;5068668;28;20018;-69
2023/05/06 08:51:27;;;;;;;;;;;16.10;99.90;;;;;;5063725;28;20449;-69
2023/05/06 08:53:53;;;;;;;;;;;16.10;99.90;;;;;;5072033;28;19924;-69
2023/05/06 08:56:23;;;;;;;;;;;16.10;99.90;;;;;;5070883;28;20289;-69
2023/05/06 08:58:50;;;;;;;;;;;16.10;99.90;;;;;;5052433;28;19925;-69
2023/05/06 09:01:16;;;;;;;;;;;16.10;99.90;;;;;;5068475;28;19932;-69
2023/05/06 09:03:42;;;;;;;;;;;16.20;99.90;;;;;;5037158;28;19925;-69
2023/05/06 09:06:09;;;;;;;;;;;16.40;99.90;;;;;;5071654;28;19980;-69
2023/05/06 09:08:35;;;;;;;;;;;16.60;99.90;;;;;;5054663;28;19977;-69
2023/05/06 09:11:00;;;;;;;;;;;16.50;99.90;;;;;;5068994;28;19924;-69
2023/05/06 09:13:26;;;;;;;;;;;16.60;99.90;;;;;;5067456;28;19951;-68
2023/05/06 09:15:52;;;;;;;;;;;16.70;99.90;;;;;;5064520;28;19924;-68
2023/05/06 09:18:19;;;;;;;;;;;16.70;99.90;;;;;;5064522;28;19931;-69
2023/05/06 09:20:46;;;;;;;;;;;16.90;99.90;;;;;;5066459;28;19925;-67
2023/05/06 09:23:13;;;;;;;;;;;17.00;99.90;;;;;;5068577;28;20389;-69
2023/05/06 09:25:38;;;;;;;;;;;17.10;99.90;;;;;;5069650;28;20027;-70
2023/05/06 09:28:05;;;;;;;;;;;17.20;99.90;;;;;;5052902;28;20377;-70
2023/05/06 09:30:31;;;;;;;;;;;17.10;99.90;;;;;;5053874;28;20034;-69
2023/05/06 09:32:56;;;;;;;;;;;17.30;99.90;;;;;;5067967;28;20374;-68
2023/05/06 09:35:28;;;;;;;;;;;17.50;99.90;;;;;;5070994;28;19934;-68
2023/05/06 09:37:53;;;;;;;;;;;17.70;99.90;;;;;;5068485;28;19932;-68
2023/05/06 09:40:22;;;;;;;;;;;18.00;99.90;;;;;;5069516;28;19935;-67
2023/05/06 09:42:50;;;;;;;;;;;18.00;99.90;;;;;;5065832;28;19936;-68
2023/05/06 09:45:16;;;;;;;;;;;18.10;99.90;;;;;;5073813;28;20376;-68
2023/05/06 09:47:43;;;;;;;;;;;18.30;99.90;;;;;;5074807;28;19971;-68
2023/05/06 09:50:09;;;;;;;;;;;18.40;99.90;;;;;;5074998;28;19929;-68
2023/05/06 09:52:35;;;;;;;;;;;18.60;99.90;;;;;;5074276;28;19928;-68
2023/05/06 09:55:02;;;;;;;;;;;18.80;99.90;;;;;;5073546;28;20344;-69
2023/05/06 09:57:29;;;;;;;;;;;18.80;99.90;;;;;;5058482;28;19998;-68
2023/05/06 09:59:56;;;;;;;;;;;18.90;99.90;;;;;;5072365;28;19960;-69
2023/05/06 10:02:22;;;;;;;;;;;19.00;99.90;;;;;;5053722;28;19924;-68
2023/05/06 10:04:48;;;;;;;;;;;19.10;99.90;;;;;;5071306;28;20373;-68
2023/05/06 10:07:15;;;;;;;;;;;19.40;99.90;;;;;;5073094;28;19968;-69
2023/05/06 10:09:42;;;;;;;;;;;19.60;99.90;;;;;;5054786;28;19931;-69
2023/05/06 10:12:08;;;;;;;;;;;19.60;99.90;;;;;;5071866;28;19948;-68
2023/05/06 10:14:34;;;;;;;;;;;19.70;99.90;;;;;;5073092;28;20386;-69
2023/05/06 10:17:00;;;;;;;;;;;19.60;99.90;;;;;;5074331;28;19924;-68
2023/05/06 10:19:29;;;;;;;;;;;19.50;99.90;;;;;;5071587;28;19939;-68
2023/05/06 10:22:00;;;;;;;;;;;19.70;99.90;;;;;;5074551;28;19924;-68
2023/05/06 10:24:31;;;;;;;;;;;20.00;99.90;;;;;;5073831;28;19978;-69
2023/05/06 10:26:56;;;;;;;;;;;20.30;99.90;;;;;;5074485;28;19921;-67
2023/05/06 10:29:24;;;;;;;;;;;20.60;99.90;;;;;;5073812;28;19970;-69
2023/05/06 10:31:54;;;;;;;;;;;20.60;99.90;;;;;;5074374;28;20439;-66
2023/05/06 10:34:20;;;;;;;;;;;20.60;99.90;;;;;;5065985;28;19925;-70
2023/05/06 10:36:47;;;;;;;;;;;20.30;99.90;;;;;;5083374;28;19955;-68
2023/05/06 10:39:13;;;;;;;;;;;20.10;99.90;;;;;;5050325;28;19931;-68
2023/05/06 10:41:38;;;;;;;;;;;20.20;99.90;;;;;;5071767;28;19940;-68
2023/05/06 10:44:05;;;;;;;;;;;20.30;99.90;;;;;;5060806;28;19925;-69
2023/05/06 10:46:31;;;;;;;;;;;20.40;99.90;;;;;;5066352;28;20382;-69
2023/05/06 10:49:03;;;;;;;;;;;20.50;99.90;;;;;;5070436;28;19931;-69
2023/05/06 10:51:32;;;;;;;;;;;20.30;99.90;;;;;;5062982;28;20309;-69
2023/05/06 10:54:08;;;;;;;;;;;20.30;99.90;;;;;;5072549;28;19925;-68
2023/05/06 10:56:34;;;;;;;;;;;20.00;99.90;;;;;;5069951;28;19979;-69
2023/05/06 10:59:02;;;;;;;;;;;19.80;99.90;;;;;;5072580;28;20387;-68
2023/05/06 11:01:28;;;;;;;;;;;19.80;99.90;;;;;;5054071;28;19925;-69
2023/05/06 11:03:54;;;;;;;;;;;19.90;99.90;;;;;;5071257;28;19928;-69
2023/05/06 11:06:38;;;;;;;;;;;20.00;99.90;;;;;;5047868;28;19932;-69
2023/05/06 11:09:04;;;;;;;;;;;19.90;99.90;;;;;;5066690;28;20302;-69
2023/05/06 11:11:45;;;;;;;;;;;19.80;99.90;;;;;;5052659;28;19924;-68
2023/05/06 11:14:12;;;;;;;;;;;19.60;99.90;;;;;;5072495;28;19959;-69
2023/05/06 11:16:50;;;;;;;;;;;19.40;99.90;;;;;;5068541;28;20427;-67
2023/05/06 11:19:20;;;;;;;;;;;19.30;99.90;;;;;;5049738;28;19931;-69
2023/05/06 11:21:46;;;;;;;;;;;19.20;99.90;;;;;;5068965;28;19921;-69
2023/05/06 11:24:12;;;;;;;;;;;19.00;99.90;;;;;;5070719;28;19925;-68
2023/05/06 11:26:39;;;;;;;;;;;19.00;99.90;;;;;;5068160;28;20387;-68
2023/05/06 11:29:04;;;;;;;;;;;19.00;99.90;;;;;;5060295;28;19924;-70
2023/05/06 11:31:36;;;;;;;;;;;18.90;99.90;;;;;;5072750;28;19935;-70
2023/05/06 11:34:05;;;;;;;;;;;18.90;99.90;;;;;;5068466;28;20020;-69
2023/05/06 11:36:31;;;;;;;;;;;19.00;99.90;;;;;;5053709;28;19925;-69
2023/05/06 11:38:57;;;;;;;;;;;19.00;99.90;;;;;;5073586;28;19952;-69
2023/05/06 11:41:23;;;;;;;;;;;19.00;99.90;;;;;;5069539;28;19955;-69
2023/05/06 11:43:49;;;;;;;;;;;19.00;99.90;;;;;;5070763;28;20366;-69
2023/05/06 11:46:17;;;;;;;;;;;18.90;99.90;;;;;;5072050;28;19925;-68
2023/05/06 11:48:42;;;;;;;;;;;18.90;99.90;;;;;;5067280;28;19924;-68
2023/05/06 11:51:08;;;;;;;;;;;18.80;99.90;;;;;;5069753;28;19924;-69
2023/05/06 11:53:34;;;;;;;;;;;18.70;99.90;;;;;;5070229;28;20293;-68
2023/05/06 11:55:59;;;;;;;;;;;18.50;99.90;;;;;;5072372;28;20018;-68
2023/05/06 11:58:26;;;;;;;;;;;18.50;99.90;;;;;;5063323;28;19932;-69
2023/05/06 12:00:53;;;;;;;;;;;18.30;99.90;;;;;;5063888;28;19932;-68
2023/05/06 12:03:19;;;;;;;;;;;18.10;99.90;;;;;;5068259;28;19924;-68
2023/05/06 12:05:44;;;;;;;;;;;18.00;99.90;;;;;;5071610;28;19998;-69
2023/05/06 12:08:10;;;;;;;;;;;17.90;99.90;;;;;;5041674;28;19925;-68
2023/05/06 12:10:37;;;;;;;;;;;17.80;99.90;;;;;;5062497;28;19934;-67
2023/05/06 12:13:04;;;;;;;;;;;17.60;99.90;;;;;;5077961;28;19924;-69
2023/05/06 12:15:30;;;;;;;;;;;17.50;99.90;;;;;;5070899;28;20008;-69
2023/05/06 12:17:56;;;;;;;;;;;17.40;99.90;;;;;;5070218;28;19968;-69
2023/05/06 12:20:46;;;;;;;;;;;17.30;99.90;;;;;;5069076;28;20019;-69
2023/05/06 12:23:13;;;;;;;;;;;17.20;99.90;;;;;;5048012;28;20302;-68
2023/05/06 12:25:39;;;;;;;;;;;17.10;99.90;;;;;;5069810;28;19924;-68
2023/05/06 12:28:14;;;;;;;;;;;17.00;99.90;;;;;;5056824;28;19932;-69
2023/05/06 12:30:40;;;;;;;;;;;16.80;99.90;;;;;;5064149;28;19924;-69
2023/05/06 12:33:05;;;;;;;;;;;16.70;99.90;;;;;;5068459;28;19939;-70
2023/05/06 12:35:31;;;;;;;;;;;16.60;99.90;;;;;;5066527;28;19924;-69
2023/05/06 12:38:06;;;;;;;;;;;16.50;99.90;;;;;;5067223;28;20019;-70
2023/05/06 12:40:32;;;;;;;;;;;16.40;99.90;;;;;;5038598;28;19924;-70
2023/05/06 12:42:57;;;;;;;;;;;16.30;99.90;;;;;;5051611;28;20352;-69
2023/05/06 12:45:23;;;;;;;;;;;16.20;99.90;;;;;;5060919;28;20392;-70
2023/05/06 12:47:53;;;;;;;;;;;16.10;99.90;;;;;;5049872;28;19931;-71
2023/05/06 12:50:31;;;;;;;;;;;16.10;99.90;;;;;;5056987;28;19977;-70
2023/05/06 12:52:57;;;;;;;;;;;16.00;99.90;;;;;;5049464;28;19924;-70
2023/05/06 12:55:24;;;;;;;;;;;16.00;99.90;;;;;;5068963;28;19946;-71
2023/05/06 12:57:53;;;;;;;;;;;15.80;99.90;;;;;;5068624;28;20604;-70
2023/05/06 13:00:28;;;;;;;;;;;15.90;99.90;;;;;;5064534;28;19931;-71
2023/05/06 13:02:57;;;;;;;;;;;15.80;99.90;;;;;;5032187;28;19925;-69
2023/05/06 13:05:23;;;;;;;;;;;15.70;99.90;;;;;;5063693;28;20329;-70
2023/05/06 13:07:50;;;;;;;;;;;15.50;99.90;;;;;;5064509;28;19999;-70
2023/05/06 13:10:15;;;;;;;;;;;15.40;99.90;;;;;;5063625;28;19944;-69
2023/05/06 13:12:41;;;;;;;;;;;15.30;99.90;;;;;;5066262;28;19925;-69
2023/05/06 13:15:07;;;;;;;;;;;15.10;99.90;;;;;;5059592;28;19932;-69
2023/05/06 13:17:32;;;;;;;;;;;15.00;99.90;;;;;;5059710;28;19925;-68
2023/05/06 13:19:58;;;;;;;;;;;15.00;99.90;;;;;;5064060;28;19925;-70
2023/05/06 13:22:24;;;;;;;;;;;15.00;99.90;;;;;;5057344;28;19932;-69
2023/05/06 13:24:49;;;;;;;;;;;15.00;99.90;;;;;;5062574;28;19929;-69
2023/05/06 13:27:15;;;;;;;;;;;14.90;99.90;;;;;;5059142;28;19925;-69
2023/05/06 13:29:40;;;;;;;;;;;14.90;99.90;;;;;;5052729;28;19987;-69
2023/05/06 13:32:06;;;;;;;;;;;14.90;99.90;;;;;;5046967;28;19925;-69
2023/05/06 13:34:32;;;;;;;;;;;14.90;99.90;;;;;;5071217;28;19925;-68
2023/05/06 13:36:57;;;;;;;;;;;15.00;99.90;;;;;;5063481;28;19931;-69
2023/05/06 13:39:23;;;;;;;;;;;15.00;99.90;;;;;;5053071;28;19925;-68
2023/05/06 13:41:49;;;;;;;;;;;15.10;99.90;;;;;;5077848;28;20021;-69
2023/05/06 13:44:15;;;;;;;;;;;15.10;99.90;;;;;;5062567;28;20080;-69
2023/05/06 13:46:41;;;;;;;;;;;15.10;99.90;;;;;;5068228;28;19933;-69
2023/05/06 13:49:06;;;;;;;;;;;15.10;99.90;;;;;;5048205;28;19955;-70
2023/05/06 13:51:33;;;;;;;;;;;15.00;99.90;;;;;;5063559;28;19925;-70
2023/05/06 13:53:59;;;;;;;;;;;15.00;99.90;;;;;;5069668;28;19992;-70
2023/05/06 13:56:25;;;;;;;;;;;15.00;99.90;;;;;;5067902;28;20025;-69
2023/05/06 13:58:52;;;;;;;;;;;15.00;99.90;;;;;;5067011;28;20398;-70
2023/05/06 14:01:19;;;;;;;;;;;15.00;99.90;;;;;;5053988;28;20299;-69
2023/05/06 14:03:44;;;;;;;;;;;15.10;99.90;;;;;;5072234;28;19925;-68
2023/05/06 14:06:10;;;;;;;;;;;15.20;99.90;;;;;;5070608;28;19924;-69
2023/05/06 14:08:35;;;;;;;;;;;15.30;99.90;;;;;;5060674;28;19924;-69
2023/05/06 14:11:01;;;;;;;;;;;15.30;99.90;;;;;;5067681;28;19924;-69
2023/05/06 14:13:29;;;;;;;;;;;15.50;99.90;;;;;;5051769;28;19946;-68